PST,Max TemperatureF,Mean TemperatureF,Min TemperatureF,Max Dew PointF,MeanDew PointF,Min DewpointF,Max Humidity, Mean Humidity, Min Humidity, Max Sea Level PressureIn, Mean Sea Level PressureIn, Min Sea Level PressureIn, Max VisibilityMiles, Mean VisibilityMiles, Min VisibilityMiles, Max Wind SpeedMPH, Mean Wind SpeedMPH, Max Gust SpeedMPH,PrecipitationIn, CloudCover, Events, WindDirDegrees
2012-11-1,56,53,50,55,53,50,100,97,93,30.00,29.85,29.67,10,9,2,20,8,26,0.22,8,Rain,185
2012-11-2,56,52,47,53,51,48,100,92,83,30.01,29.97,29.93,10,9,2,10,4,13,0.30,7,Rain,106
2012-11-3,56,54,52,56,55,52,100,97,93,30.16,30.07,29.95,10,4,1,18,8,29,0.21,8,Rain,187
2012-11-4,61,58,54,59,57,55,100,95,90,30.32,30.22,30.15,10,5,1,20,10,31,0.38,8,Rain,182
2012-11-5,58,52,46,54,50,46,100,84,67,30.39,30.33,30.10,10,5,0,10,3,13,0.04,5,Fog-Rain,326
2012-11-6,55,49,42,54,48,43,100,97,93,30.11,30.05,30.02,10,6,0,18,5,25,0.09,6,Fog-Rain,201
2012-11-7,53,47,40,46,43,41,100,84,68,30.16,30.09,29.91,10,9,2,13,5,17,0.28,5,Rain,200
2012-11-8,52,43,34,43,40,34,100,84,68,29.88,29.81,29.77,10,10,10,11,5,16,T,3,Rain,87
2012-11-9,48,39,30,40,35,30,100,83,66,29.94,29.88,29.85,10,7,0,20,5,26,0.02,4,Fog-Rain-Thunderstorm,120
2012-11-10,47,38,29,37,33,29,100,83,65,30.18,30.05,29.94,10,7,0,9,4,10,0.00,4,Fog,117
2012-11-11,52,45,38,48,43,37,100,91,82,30.19,30.11,30.03,10,8,4,30,9,45,0.72,8,Rain,129
2012-11-12,56,52,48,52,49,47,100,89,77,30.21,30.13,30.03,10,7,2,32,7,45,0.25,8,Rain,175
2012-11-13,54,49,44,50,48,45,100,92,83,30.21,30.17,30.13,10,7,1,12,2,20,0.33,7,Rain,162
2012-11-14,54,46,37,50,44,37,100,89,77,30.29,30.24,30.20,10,6,0,9,2,14,0.06,5,Fog-Rain,86
2012-11-15,53,44,35,44,40,36,100,83,66,30.21,30.08,29.92,10,6,0,10,5,16,0.00,2,Fog,105
2012-11-16,54,49,43,52,44,40,100,93,86,29.91,29.82,29.65,10,8,1,14,5,21,0.32,8,Rain,103
2012-11-17,55,49,42,50,44,39,93,88,83,29.70,29.60,29.49,10,6,1,23,8,32,1.90,7,Rain-Thunderstorm,203
2012-11-18,54,50,45,52,47,42,100,90,80,29.73,29.61,29.48,10,7,1,33,13,54,2.22,8,Rain-Thunderstorm,176
2012-11-19,57,54,50,54,52,47,100,92,83,29.67,29.50,29.36,10,5,1,46,20,74,1.99,8,Rain,200
2012-11-20,53,49,45,48,45,41,93,82,71,29.67,29.60,29.52,10,9,2,32,10,44,0.65,5,Rain,171
2012-11-21,50,45,40,45,40,37,100,83,66,30.29,29.89,29.53,10,9,2,30,13,40,0.36,5,Rain,220
2012-11-22,51,45,38,42,39,37,93,78,63,30.31,30.26,30.19,10,10,10,14,7,17,0.01,4,Rain,108
2012-11-23,56,51,46,54,49,39,100,86,71,30.17,30.10,30.03,10,6,1,28,10,40,1.18,8,Rain,215
2012-11-24,51,43,35,46,42,35,100,87,74,30.27,30.23,30.17,10,4,0,13,2,14,0.01,5,Fog-Rain,128
2012-11-25,48,40,31,41,36,31,100,86,71,30.31,30.26,30.12,10,4,0,17,7,21,0.00,4,Fog,98
2012-11-26,53,45,37,39,35,32,92,69,46,30.11,30.03,29.99,10,10,10,18,6,22,0.00,3,,90
2012-11-27,52,47,42,41,39,38,89,76,63,30.03,29.96,29.85,10,10,10,12,5,20,0.00,4,,86
2012-11-28,56,49,42,50,41,36,82,69,56,29.83,29.64,29.53,10,9,5,24,9,37,0.05,7,Rain,113
2012-11-29,56,53,49,50,46,43,89,78,66,29.60,29.51,29.39,10,9,2,16,9,23,0.19,8,Rain,129
2012-11-30,56,52,48,52,49,46,96,87,77,29.44,29.39,29.32,10,7,2,28,15,47,1.98,8,Rain,186